createdAt,value
2022-08-30T00:02:52.501Z,20.38
2022-08-30T00:07:58.298Z,20.02
2022-08-30T00:13:01.905Z,20.36
2022-08-30T00:18:04.659Z,20.31
2022-08-30T00:23:08.838Z,20.20
2022-08-30T00:28:11.972Z,20.25
2022-08-30T00:33:16.082Z,20.07
2022-08-30T00:38:20.180Z,20.15
2022-08-30T00:43:29.520Z,20.06
2022-08-30T00:48:32.358Z,19.87
2022-08-30T00:53:39.914Z,19.77
2022-08-30T00:58:46.815Z,19.89
2022-08-30T01:03:50.761Z,20.04
2022-08-30T01:08:55.775Z,19.41
2022-08-30T01:14:00.249Z,20.00
2022-08-30T01:19:03.690Z,20.00
2022-08-30T01:24:10.459Z,19.91
2022-08-30T01:29:19.186Z,20.11
2022-08-30T01:34:21.922Z,20.11
2022-08-30T01:39:26.751Z,19.72
2022-08-30T01:44:29.433Z,19.60
2022-08-30T01:49:32.238Z,19.49
2022-08-30T01:54:38.618Z,19.81
2022-08-30T01:59:43.464Z,19.78
2022-08-30T02:04:46.208Z,19.49
2022-08-30T02:09:51.362Z,19.82
2022-08-30T02:14:54.586Z,20.01
2022-08-30T02:19:57.413Z,20.08
2022-08-30T02:25:01.914Z,19.78
2022-08-30T02:30:06.606Z,19.26
2022-08-30T02:35:10.431Z,18.99
2022-08-30T02:40:14.963Z,19.02
2022-08-30T02:45:17.672Z,18.35
2022-08-30T02:50:22.060Z,19.11
2022-08-30T02:55:28.612Z,19.16
2022-08-30T03:00:31.273Z,18.87
2022-08-30T03:05:34.342Z,19.04
2022-08-30T03:10:38.885Z,19.51
2022-08-30T03:15:42.259Z,18.99
2022-08-30T03:20:46.170Z,19.20
2022-08-30T03:25:58.459Z,19.61
2022-08-30T03:31:01.494Z,19.27
2022-08-30T03:36:05.464Z,19.64
2022-08-30T03:41:09.733Z,19.25
2022-08-30T03:46:12.767Z,18.83
2022-08-30T03:51:15.456Z,18.61
2022-08-30T03:56:19.945Z,19.47
2022-08-30T04:01:23.163Z,19.48
2022-08-30T04:06:27.303Z,19.45
2022-08-30T04:11:32.058Z,18.73
2022-08-30T04:16:35.017Z,18.92
2022-08-30T04:21:42.875Z,18.57
2022-08-30T04:26:47.524Z,18.34
2022-08-30T04:31:50.675Z,18.60
2022-08-30T04:36:53.688Z,18.76
2022-08-30T04:41:58.268Z,18.98
2022-08-30T04:47:00.968Z,18.90
2022-08-30T04:52:06.227Z,18.99
2022-08-30T04:57:10.286Z,19.04
2022-08-30T05:02:14.820Z,18.42
2022-08-30T05:07:18.037Z,18.84
2022-08-30T05:12:24.196Z,19.01
2022-08-30T05:17:27.614Z,18.83
2022-08-30T05:22:30.876Z,18.64
2022-08-30T05:27:37.841Z,19.07
2022-08-30T05:32:41.891Z,19.26
2022-08-30T05:37:44.804Z,19.24
2022-08-30T05:42:48.817Z,19.21
2022-08-30T05:47:51.459Z,19.31
2022-08-30T05:52:54.869Z,19.25
2022-08-30T05:58:00.602Z,18.80
2022-08-30T06:03:03.977Z,19.29
2022-08-30T06:08:06.705Z,19.47
2022-08-30T06:13:11.161Z,19.42
2022-08-30T06:18:14.524Z,19.27
2022-08-30T06:23:17.638Z,19.33
2022-08-30T06:28:21.735Z,19.36
2022-08-30T06:33:26.773Z,19.62
2022-08-30T06:38:29.361Z,19.43
2022-08-30T06:43:33.327Z,19.43
2022-08-30T06:48:36.136Z,19.09
2022-08-30T06:53:39.107Z,19.57
2022-08-30T06:58:45.650Z,18.85
2022-08-30T07:03:48.563Z,19.80
2022-08-30T07:08:56.386Z,19.77
2022-08-30T07:14:01.560Z,19.64
2022-08-30T07:19:05.198Z,19.95
2022-08-30T07:24:10.077Z,20.07
2022-08-30T07:29:14.282Z,20.10
2022-08-30T07:34:19.269Z,20.08
2022-08-30T07:39:23.308Z,20.25
2022-08-30T07:44:28.457Z,20.38
2022-08-30T07:49:31.577Z,20.52
2022-08-30T07:54:34.439Z,20.59
2022-08-30T07:59:38.495Z,20.61
2022-08-30T08:04:41.194Z,20.76
2022-08-30T08:09:44.016Z,20.41
2022-08-30T08:14:48.055Z,20.71
2022-08-30T08:19:50.729Z,20.98
2022-08-30T08:25:03.089Z,21.04
2022-08-30T08:30:09.536Z,20.97
2022-08-30T08:35:12.581Z,21.23
2022-08-30T08:40:18.283Z,21.39
2022-08-30T08:45:30.230Z,21.36
2022-08-30T08:50:33.858Z,21.41
2022-08-30T08:55:44.951Z,21.33
2022-08-30T09:00:49.071Z,21.58
2022-08-30T09:05:55.720Z,21.44
2022-08-30T09:11:02.444Z,21.78
2022-08-30T09:16:07.135Z,21.85
2022-08-30T09:21:25.167Z,21.77
2022-08-30T09:26:32.689Z,22.12
2022-08-30T09:31:48.753Z,21.98
2022-08-30T09:36:53.826Z,22.41
2022-08-30T09:42:13.626Z,22.47
2022-08-30T09:47:24.657Z,22.32
2022-08-30T09:52:39.796Z,22.65
2022-08-30T09:57:55.782Z,22.82
2022-08-30T10:03:11.262Z,22.60
2022-08-30T10:08:25.270Z,23.05
2022-08-30T10:13:47.740Z,23.14
2022-08-30T10:19:06.200Z,23.20
2022-08-30T10:24:13.089Z,23.25
2022-08-30T10:29:29.480Z,23.13
2022-08-30T10:34:39.831Z,23.28
2022-08-30T10:39:46.643Z,23.21
2022-08-30T10:44:55.903Z,23.30
2022-08-30T10:50:08.898Z,23.34
2022-08-30T10:55:16.684Z,23.26
2022-08-30T11:00:27.511Z,23.42
2022-08-30T11:05:47.565Z,23.51
2022-08-30T11:11:02.599Z,23.84
2022-08-30T11:16:08.290Z,23.95
2022-08-30T11:21:25.739Z,23.98
2022-08-30T11:26:57.080Z,24.17
2022-08-30T11:32:02.039Z,24.26
2022-08-30T11:37:09.851Z,24.39
2022-08-30T11:42:29.384Z,24.56
2022-08-30T11:47:44.696Z,24.72
2022-08-30T11:53:00.735Z,24.90
2022-08-30T11:58:19.204Z,24.86
2022-08-30T12:03:35.044Z,25.07
2022-08-30T12:08:57.951Z,25.10
2022-08-30T12:14:09.232Z,25.18
2022-08-30T12:19:17.399Z,25.00
2022-08-30T12:24:26.967Z,25.26
2022-08-30T12:29:34.226Z,25.43
2022-08-30T12:34:52.725Z,25.56
2022-08-30T12:40:06.502Z,25.58
2022-08-30T12:45:13.337Z,25.40
2022-08-30T12:50:20.267Z,25.79
2022-08-30T12:55:27.493Z,25.96
2022-08-30T13:00:32.857Z,26.10
2022-08-30T13:05:48.053Z,26.01
2022-08-30T13:11:01.524Z,25.90
2022-08-30T13:16:12.277Z,26.36
2022-08-30T13:21:25.403Z,26.46
2022-08-30T13:26:32.904Z,26.54
2022-08-30T13:31:36.873Z,26.77
2022-08-30T13:36:46.916Z,26.89
2022-08-30T13:41:52.211Z,27.04
2022-08-30T13:47:32.149Z,27.28
2022-08-30T13:52:24.388Z,27.38
2022-08-30T14:02:55.895Z,27.11
2022-08-30T14:08:00.459Z,26.94
2022-08-30T14:13:08.982Z,26.93
2022-08-30T14:18:17.183Z,26.74
2022-08-30T14:23:20.581Z,26.79
2022-08-30T14:28:25.909Z,26.81
2022-08-30T14:33:29.873Z,26.83
2022-08-30T14:38:32.540Z,26.77
2022-08-30T14:43:37.690Z,26.82
2022-08-30T14:48:41.582Z,26.73
2022-08-30T14:53:46.972Z,26.60
2022-08-30T14:58:53.009Z,26.21
2022-08-30T15:03:59.139Z,26.24
2022-08-30T15:09:03.182Z,26.03
2022-08-30T15:14:10.110Z,25.88
2022-08-30T15:19:18.638Z,25.59
2022-08-30T15:24:27.483Z,25.76
2022-08-30T15:29:34.266Z,25.73
2022-08-30T15:34:38.047Z,25.66
2022-08-30T15:39:40.874Z,25.21
2022-08-30T15:44:44.985Z,25.47
2022-08-30T15:49:54.494Z,25.40
2022-08-30T15:54:57.762Z,25.43
2022-08-30T16:00:01.956Z,25.39
2022-08-30T16:05:11.633Z,25.09
2022-08-30T16:10:15.119Z,25.26
2022-08-30T16:15:19.282Z,25.19
2022-08-30T16:20:23.670Z,25.13
2022-08-30T16:25:26.545Z,25.26
2022-08-30T16:30:48.349Z,25.16
2022-08-30T16:35:58.050Z,25.11
2022-08-30T16:41:05.031Z,24.89
2022-08-30T16:46:11.989Z,24.81
2022-08-30T16:51:16.418Z,24.62
2022-08-30T16:56:21.258Z,24.55
2022-08-30T17:01:25.613Z,24.33
2022-08-30T17:06:28.940Z,24.41
2022-08-30T17:11:31.745Z,24.16
2022-08-30T17:16:38.464Z,24.30
2022-08-30T17:21:45.334Z,24.26
2022-08-30T17:26:48.257Z,24.25
2022-08-30T17:31:52.545Z,24.21
2022-08-30T17:36:58.145Z,23.99
2022-08-30T17:42:06.364Z,24.16
2022-08-30T17:47:11.743Z,24.03
2022-08-30T17:52:14.668Z,23.99
2022-08-30T17:57:18.117Z,23.64
2022-08-30T18:02:22.749Z,23.90
2022-08-30T18:07:32.841Z,23.77
2022-08-30T18:12:35.699Z,23.53
2022-08-30T18:17:42.981Z,23.32
2022-08-30T18:22:46.761Z,23.51
2022-08-30T18:27:57.181Z,23.39
2022-08-30T18:33:14.493Z,23.39
2022-08-30T18:38:18.037Z,23.41
2022-08-30T18:43:30.654Z,23.22
2022-08-30T18:48:35.920Z,22.57
2022-08-30T18:53:39.789Z,23.09
2022-08-30T18:58:44.613Z,22.86
2022-08-30T19:03:49.397Z,23.04
2022-08-30T19:08:52.279Z,22.95
2022-08-30T19:13:57.354Z,22.98
2022-08-30T19:19:02.782Z,22.52
2022-08-30T19:24:06.179Z,22.86
2022-08-30T19:29:11.114Z,22.91
2022-08-30T19:34:17.688Z,22.92
2022-08-30T19:39:20.512Z,22.35
2022-08-30T19:44:24.987Z,22.43
2022-08-30T19:49:29.568Z,22.62
2022-08-30T19:54:37.592Z,22.63
2022-08-30T19:59:40.436Z,22.63
2022-08-30T20:04:44.442Z,22.62
2022-08-30T20:09:47.867Z,22.60
2022-08-30T20:14:53.597Z,22.13
2022-08-30T20:20:02.700Z,22.12
2022-08-30T20:25:10.909Z,22.35
2022-08-30T20:30:17.178Z,22.08
2022-08-30T20:35:23.633Z,21.85
2022-08-30T20:40:26.427Z,22.14
2022-08-30T20:45:31.067Z,21.97
2022-08-30T20:50:35.353Z,22.29
2022-08-30T20:55:42.131Z,22.09
2022-08-30T21:00:49.838Z,21.67
2022-08-30T21:05:58.941Z,21.91
2022-08-30T21:11:02.071Z,22.32
2022-08-30T21:16:06.182Z,22.24
2022-08-30T21:21:12.393Z,22.10
2022-08-30T21:26:15.597Z,21.65
2022-08-30T21:31:21.060Z,21.74
2022-08-30T21:36:45.562Z,21.87
2022-08-30T21:41:49.626Z,21.73
2022-08-30T21:46:53.565Z,21.65
2022-08-30T21:51:57.989Z,21.47
2022-08-30T21:57:04.832Z,21.56
2022-08-30T22:02:07.572Z,21.76
2022-08-30T22:07:11.859Z,21.04
2022-08-30T22:12:14.868Z,21.37
2022-08-30T22:17:18.819Z,21.61
2022-08-30T22:22:22.853Z,21.54
2022-08-30T22:27:25.548Z,21.75
2022-08-30T22:32:28.592Z,21.81
2022-08-30T22:37:33.908Z,21.70
2022-08-30T22:42:36.874Z,21.33
2022-08-30T22:47:39.530Z,21.58
2022-08-30T22:52:43.986Z,21.61
2022-08-30T22:57:46.668Z,20.88
2022-08-30T23:03:00.015Z,21.35
2022-08-30T23:08:06.911Z,21.24
2022-08-30T23:13:09.936Z,21.54
2022-08-30T23:18:12.716Z,21.34
2022-08-30T23:23:34.679Z,21.32
2022-08-30T23:28:54.812Z,21.30
2022-08-30T23:34:15.971Z,21.24
2022-08-30T23:39:37.455Z,21.26
2022-08-30T23:44:58.047Z,20.87
2022-08-30T23:50:18.416Z,20.84
2022-08-30T23:55:40.079Z,20.89
